Accueil
METAR-TAF:

METAR-TAF

Aéroports :

Aéroport de Salalah

Salalah, Oman

latitude: 17-02N, longitude: 054-05E, altitude: 20 m

Observation

Le bulletin a été fait il y a 21 minutes, à 02:50 UTC
Vent 2 kt de direction variable
Température 30°C
Humidité 75%
Pression 1008 hPa
Visibilité 10 km ou plus
Nuages épars à une hauteur de 2500 ft

METAR: OOSA 130250Z VRB02KT 9999 SCT025 30/25 Q1008 NOSIG

Heure: 07:11 (03:11 UTC)

Prévision

Le bulletin a été fait il y a 4 heures et 11 minutes, à 23:00 UTC
Prévision valable du 13 à 00 UTC au 14 à 06 UTC
Vent 3 kt de direction variable
Visibilité 10 km ou plus
Nuages épars à une hauteur de 2500 ft
Evoluant progressivement
du 13 à 06 UTC au 13 à 08 UTC
Vent 10 kt de sud/sud-ouest

TAF: OOSA 122300Z 1300/1406 VRB03KT 9999 SCT025 BECMG 1306/1308 20010KT

Observations et prévisions météorologiques de plus de 4000 aéroports (messages METAR et TAF).

Les stations disponibles sont représentées par des disques jaunes et rouges sur la carte.

Passer la souris dessus pour voir le nom de la station.

Cliquer dessus pour voir les observations et prévisions météorologiques.

Pour changer de carte: cliquez sur les boutons verts avec une croix noire pour zoomer, sur le bouton vert avec un tiret pour effectuer un zoom arrière, ou sur les flèches vertes pour les cartes adjacentes.


METAR-TAF: